createdAt,value
2022-12-24T00:01:38.718Z,37.57
2022-12-24T00:04:07.193Z,38.17
2022-12-24T00:06:35.508Z,36.13
2022-12-24T00:09:04.092Z,36.50
2022-12-24T00:11:32.472Z,38.97
2022-12-24T00:14:00.796Z,38.90
2022-12-24T00:16:29.326Z,35.23
2022-12-24T00:18:59.039Z,36.00
2022-12-24T00:21:27.340Z,38.20
2022-12-24T00:23:55.615Z,37.47
2022-12-24T00:26:23.868Z,37.17
2022-12-24T00:28:52.401Z,35.83
2022-12-24T00:31:20.979Z,34.37
2022-12-24T00:33:49.742Z,35.60
2022-12-24T00:36:20.494Z,39.00
2022-12-24T00:38:49.165Z,36.07
2022-12-24T00:41:29.187Z,36.97
2022-12-24T00:43:59.453Z,34.23
2022-12-24T00:46:29.795Z,34.83
2022-12-24T00:48:58.169Z,35.73
2022-12-24T00:51:28.172Z,37.80
2022-12-24T00:53:57.029Z,37.20
2022-12-24T00:56:25.353Z,37.53
2022-12-24T00:58:54.005Z,39.80
2022-12-24T01:01:23.094Z,37.73
2022-12-24T01:03:52.341Z,40.30
2022-12-24T01:06:21.715Z,40.03
2022-12-24T01:08:53.180Z,39.07
2022-12-24T01:11:21.407Z,38.53
2022-12-24T01:13:49.657Z,38.13
2022-12-24T01:16:21.331Z,36.77
2022-12-24T01:18:49.816Z,38.10
2022-12-24T01:21:18.467Z,39.57
2022-12-24T01:23:46.946Z,40.53
2022-12-24T01:26:16.663Z,39.73
2022-12-24T01:28:44.971Z,46.78
2022-12-24T01:31:14.727Z,41.93
2022-12-24T01:33:43.477Z,41.80
2022-12-24T01:36:12.386Z,39.90
2022-12-24T01:38:40.879Z,38.70
2022-12-24T01:41:26.413Z,47.22
2022-12-24T01:43:56.125Z,43.07
2022-12-24T01:46:27.943Z,38.80
2022-12-24T01:48:59.090Z,40.33
2022-12-24T01:51:31.723Z,39.10
2022-12-24T01:54:04.511Z,47.33
2022-12-24T01:56:34.472Z,39.63
2022-12-24T01:59:09.128Z,44.13
2022-12-24T02:01:37.964Z,40.60
2022-12-24T02:04:12.986Z,42.77
2022-12-24T02:06:41.271Z,39.40
2022-12-24T02:09:09.557Z,39.93
2022-12-24T02:11:40.391Z,41.07
2022-12-24T02:14:10.244Z,40.90
2022-12-24T02:16:45.974Z,41.93
2022-12-24T02:19:36.159Z,41.58
2022-12-24T02:22:09.401Z,38.87
2022-12-24T02:25:04.167Z,41.77
2022-12-24T02:27:46.765Z,39.87
2022-12-24T02:30:19.754Z,39.30
2022-12-24T02:33:05.612Z,40.00
2022-12-24T02:35:41.608Z,42.10
2022-12-24T02:38:16.182Z,41.07
2022-12-24T02:40:49.013Z,39.83
2022-12-24T02:43:21.675Z,41.50
2022-12-24T02:45:59.351Z,41.00
2022-12-24T02:48:30.258Z,40.53
2022-12-24T02:51:05.237Z,41.00
2022-12-24T02:53:34.006Z,40.50
2022-12-24T02:56:24.177Z,39.30
2022-12-24T02:59:07.655Z,46.80
2022-12-24T03:01:48.505Z,42.63
2022-12-24T03:04:39.670Z,40.27
2022-12-24T03:07:17.263Z,38.70
2022-12-24T03:09:57.042Z,39.50
2022-12-24T03:12:31.922Z,39.97
2022-12-24T03:15:01.267Z,40.00
2022-12-24T03:17:32.897Z,40.43
2022-12-24T03:20:01.277Z,40.70
2022-12-24T03:22:31.312Z,39.50
2022-12-24T03:24:59.706Z,40.67
2022-12-24T03:27:30.506Z,40.50
2022-12-24T03:29:59.553Z,42.63
2022-12-24T03:32:34.983Z,41.63
2022-12-24T03:35:03.292Z,40.83
2022-12-24T03:37:31.617Z,40.60
2022-12-24T03:40:00.180Z,42.37
2022-12-24T03:42:28.572Z,41.43
2022-12-24T03:44:56.861Z,43.93
2022-12-24T03:47:25.153Z,43.23
2022-12-24T03:49:54.877Z,49.97
2022-12-24T03:52:23.129Z,41.47
2022-12-24T03:54:51.383Z,41.63
2022-12-24T03:57:19.653Z,43.60
2022-12-24T03:59:47.982Z,43.77
2022-12-24T04:02:16.452Z,40.97
2022-12-24T04:04:44.911Z,42.03
2022-12-24T04:07:14.595Z,42.07
2022-12-24T04:09:42.987Z,42.40
2022-12-24T04:12:11.262Z,41.70
2022-12-24T04:14:39.515Z,41.00
2022-12-24T04:17:08.014Z,42.93
2022-12-24T04:19:37.125Z,43.30
2022-12-24T04:22:05.435Z,44.97
2022-12-24T04:24:35.163Z,40.40
2022-12-24T04:27:03.430Z,40.93
2022-12-24T04:29:31.667Z,43.80
2022-12-24T04:32:00.006Z,40.53
2022-12-24T04:34:28.618Z,42.40
2022-12-24T04:36:56.897Z,42.03
2022-12-24T04:39:25.231Z,40.50
2022-12-24T04:41:54.895Z,43.67
2022-12-24T04:44:23.201Z,40.27
2022-12-24T04:46:51.479Z,39.23
2022-12-24T04:49:19.757Z,41.47
2022-12-24T04:51:47.991Z,41.60
2022-12-24T04:54:17.491Z,41.87
2022-12-24T04:56:45.755Z,42.33
2022-12-24T04:59:15.428Z,41.20
2022-12-24T05:01:43.877Z,42.80
2022-12-24T05:04:12.331Z,41.90
2022-12-24T05:06:40.634Z,40.93
2022-12-24T05:09:08.905Z,41.43
2022-12-24T05:11:37.207Z,42.30
2022-12-24T05:14:05.754Z,42.23
2022-12-24T05:16:35.440Z,41.57
2022-12-24T05:19:03.847Z,40.93
2022-12-24T05:21:32.123Z,41.57
2022-12-24T05:24:17.625Z,40.50
2022-12-24T05:26:47.844Z,41.23
2022-12-24T05:29:16.649Z,40.63
2022-12-24T05:31:47.502Z,40.33
2022-12-24T05:34:16.766Z,42.53
2022-12-24T05:36:45.987Z,39.20
2022-12-24T05:39:16.877Z,40.90
2022-12-24T05:41:46.206Z,47.00
2022-12-24T05:44:15.019Z,40.07
2022-12-24T05:46:45.293Z,42.90
2022-12-24T05:49:13.678Z,41.77
2022-12-24T05:51:42.125Z,41.37
2022-12-24T05:54:10.966Z,45.47
2022-12-24T05:56:39.215Z,42.10
2022-12-24T05:59:07.469Z,42.53
2022-12-24T06:01:35.831Z,41.97
2022-12-24T06:04:05.856Z,39.37
2022-12-24T06:06:34.234Z,42.67
2022-12-24T06:09:02.506Z,41.83
2022-12-24T06:11:30.923Z,40.43
2022-12-24T06:13:59.204Z,42.50
2022-12-24T06:16:28.111Z,41.30
2022-12-24T06:18:56.487Z,38.97
2022-12-24T06:21:26.424Z,39.80
2022-12-24T06:23:54.793Z,40.17
2022-12-24T06:26:24.128Z,39.37
2022-12-24T06:28:53.285Z,40.43
2022-12-24T06:31:23.589Z,38.47
2022-12-24T06:33:52.784Z,37.10
2022-12-24T06:36:22.997Z,40.13
2022-12-24T06:38:53.116Z,38.13
2022-12-24T06:41:22.037Z,37.27
2022-12-24T06:43:51.803Z,35.83
2022-12-24T06:46:21.140Z,35.00
2022-12-24T06:48:49.773Z,35.27
2022-12-24T06:51:20.065Z,34.70
2022-12-24T06:53:50.680Z,35.63
2022-12-24T06:56:22.019Z,35.47
2022-12-24T06:58:50.602Z,38.33
2022-12-24T07:01:21.343Z,34.73
2022-12-24T07:03:49.845Z,34.97
2022-12-24T07:06:21.257Z,36.67
2022-12-24T07:08:49.595Z,35.50
2022-12-24T07:11:20.155Z,35.93
2022-12-24T07:13:49.277Z,35.43
2022-12-24T07:16:18.353Z,35.77
2022-12-24T07:18:46.756Z,35.70
2022-12-24T07:21:15.128Z,35.83
2022-12-24T07:23:43.580Z,35.63
2022-12-24T07:26:12.706Z,36.27
2022-12-24T07:28:42.391Z,34.83
2022-12-24T07:31:10.823Z,40.93
2022-12-24T07:33:39.175Z,34.13
2022-12-24T07:36:09.971Z,34.50
2022-12-24T07:38:39.818Z,35.03
2022-12-24T07:41:08.128Z,34.47
2022-12-24T07:43:36.410Z,33.30
2022-12-24T07:46:06.457Z,37.47
2022-12-24T07:48:34.940Z,32.30
2022-12-24T07:51:03.653Z,33.03
2022-12-24T07:53:32.658Z,31.23
2022-12-24T07:56:00.975Z,31.77
2022-12-24T07:58:29.715Z,30.43
2022-12-24T08:01:01.965Z,29.47
2022-12-24T08:03:31.733Z,31.60
2022-12-24T08:06:00.032Z,31.87
2022-12-24T08:08:28.631Z,32.13
2022-12-24T08:11:03.446Z,28.93
2022-12-24T08:13:32.321Z,29.63
2022-12-24T08:16:01.077Z,30.33
2022-12-24T08:18:29.444Z,27.63
2022-12-24T08:20:59.151Z,30.27
2022-12-24T08:23:27.548Z,30.27
2022-12-24T08:25:55.829Z,60.07
2022-12-24T08:28:24.143Z,29.80
2022-12-24T08:30:52.728Z,28.43
2022-12-24T08:33:22.247Z,28.63
2022-12-24T08:35:51.629Z,26.97
2022-12-24T08:38:21.669Z,42.50
2022-12-24T08:40:50.435Z,29.60
2022-12-24T08:43:19.460Z,27.80
2022-12-24T08:45:52.303Z,27.20
2022-12-24T08:48:21.036Z,27.10
2022-12-24T08:50:52.935Z,27.47
2022-12-24T08:53:33.890Z,25.53
2022-12-24T08:56:04.426Z,25.90
2022-12-24T08:58:33.183Z,25.33
2022-12-24T09:01:02.295Z,26.77
2022-12-24T09:03:30.884Z,25.53
2022-12-24T09:05:59.199Z,25.57
2022-12-24T09:08:29.143Z,26.07
2022-12-24T09:10:57.428Z,28.63
2022-12-24T09:13:25.809Z,28.13
2022-12-24T09:15:57.348Z,28.70
2022-12-24T09:18:25.641Z,27.07
2022-12-24T09:20:59.599Z,27.30
2022-12-24T09:23:29.721Z,27.17
2022-12-24T09:25:59.873Z,26.67
2022-12-24T09:28:28.184Z,27.70
2022-12-24T09:30:58.451Z,27.43
2022-12-24T09:33:27.376Z,27.27
2022-12-24T09:35:56.212Z,27.90
2022-12-24T09:38:24.992Z,27.97
2022-12-24T09:40:55.814Z,24.90
2022-12-24T09:43:26.012Z,26.90
2022-12-24T09:46:07.688Z,26.63
2022-12-24T09:48:37.952Z,27.93
2022-12-24T09:51:09.740Z,28.50
2022-12-24T09:53:43.996Z,29.13
2022-12-24T09:56:19.457Z,27.83
2022-12-24T09:58:50.763Z,33.38
2022-12-24T10:01:21.076Z,27.53
2022-12-24T10:03:49.903Z,29.90
2022-12-24T10:06:26.862Z,28.87
2022-12-24T10:09:11.573Z,28.83
2022-12-24T10:11:48.868Z,27.90
2022-12-24T10:14:38.576Z,29.33
2022-12-24T10:17:28.145Z,28.83
2022-12-24T10:20:07.554Z,28.13
2022-12-24T10:22:46.066Z,28.37
2022-12-24T10:25:20.881Z,28.43
2022-12-24T10:27:52.188Z,31.50
2022-12-24T10:30:23.303Z,29.43
2022-12-24T10:32:53.436Z,27.10
2022-12-24T10:35:25.138Z,26.47
2022-12-24T10:37:54.067Z,26.23
2022-12-24T10:40:35.617Z,31.33
2022-12-24T10:43:14.968Z,26.23
2022-12-24T10:45:48.179Z,28.53
2022-12-24T10:48:25.221Z,28.03
2022-12-24T10:50:58.465Z,26.60
2022-12-24T10:53:35.092Z,26.33
2022-12-24T10:56:07.157Z,30.43
2022-12-24T10:58:37.371Z,28.70
2022-12-24T11:01:06.137Z,27.97
2022-12-24T11:03:35.742Z,28.40
2022-12-24T11:06:07.189Z,27.60
2022-12-24T11:08:36.273Z,28.83
2022-12-24T11:11:07.112Z,27.70
2022-12-24T11:13:39.987Z,28.10
2022-12-24T11:16:16.727Z,26.20
2022-12-24T11:18:51.525Z,25.23
2022-12-24T11:21:25.779Z,26.38
2022-12-24T11:23:56.857Z,26.33
2022-12-24T11:26:27.141Z,25.87
2022-12-24T11:29:16.443Z,26.43
2022-12-24T11:31:49.901Z,24.03
2022-12-24T11:34:27.357Z,25.93
2022-12-24T11:37:14.962Z,27.53
2022-12-24T11:39:48.683Z,25.93
2022-12-24T11:42:33.888Z,26.00
2022-12-24T11:45:09.149Z,25.27
2022-12-24T11:47:40.301Z,27.63
2022-12-24T11:50:27.212Z,26.73
2022-12-24T11:53:06.357Z,27.23
2022-12-24T11:55:45.136Z,28.13
2022-12-24T11:58:27.611Z,27.93
2022-12-24T12:01:15.410Z,27.93
2022-12-24T12:03:48.439Z,28.17
2022-12-24T12:06:27.477Z,28.17
2022-12-24T12:08:58.229Z,27.67
2022-12-24T12:11:28.637Z,28.23
2022-12-24T12:13:59.481Z,28.93
2022-12-24T12:16:54.413Z,27.10
2022-12-24T12:19:26.180Z,31.40
2022-12-24T12:21:54.487Z,29.23
2022-12-24T12:24:32.375Z,27.67
2022-12-24T12:27:15.272Z,26.67
2022-12-24T12:29:47.887Z,27.10
2022-12-24T12:32:26.560Z,26.40
2022-12-24T12:35:03.847Z,27.23
2022-12-24T12:37:36.935Z,26.97
2022-12-24T12:40:13.212Z,25.57
2022-12-24T12:42:41.884Z,26.87
2022-12-24T12:45:34.295Z,25.93
2022-12-24T12:48:15.036Z,27.50
2022-12-24T12:50:50.933Z,29.25
2022-12-24T12:53:31.786Z,27.40
2022-12-24T12:56:07.855Z,27.00
2022-12-24T12:58:40.042Z,27.70
2022-12-24T13:01:14.725Z,26.60
2022-12-24T13:04:23.221Z,26.80
2022-12-24T13:07:21.386Z,27.73
2022-12-24T13:10:20.872Z,26.23
2022-12-24T13:13:07.735Z,28.90
2022-12-24T13:15:51.153Z,28.83
2022-12-24T13:18:34.775Z,27.27
2022-12-24T13:21:04.817Z,27.67
2022-12-24T13:23:33.508Z,27.40
2022-12-24T13:26:12.545Z,28.90
2022-12-24T13:28:41.032Z,29.00
2022-12-24T13:31:30.909Z,28.70
2022-12-24T13:34:04.266Z,28.60
2022-12-24T13:37:21.171Z,30.00
2022-12-24T13:40:19.939Z,31.07
2022-12-24T13:42:49.749Z,33.10
2022-12-24T13:45:46.988Z,32.70
2022-12-24T13:48:37.579Z,32.20
2022-12-24T13:51:21.194Z,33.30
2022-12-24T13:53:58.952Z,30.70
2022-12-24T13:56:28.531Z,34.13
2022-12-24T13:59:13.244Z,33.33
2022-12-24T14:01:44.619Z,31.20
2022-12-24T14:04:25.391Z,30.80
2022-12-24T14:06:55.741Z,30.93
2022-12-24T14:09:26.952Z,30.07
2022-12-24T14:12:31.898Z,33.20
2022-12-24T14:15:00.176Z,30.03
2022-12-24T14:17:31.192Z,35.47
2022-12-24T14:20:01.556Z,39.20
2022-12-24T14:22:32.972Z,37.80
2022-12-24T14:25:04.396Z,34.30
2022-12-24T14:27:40.124Z,29.83
2022-12-24T14:30:18.792Z,28.30
2022-12-24T14:32:48.354Z,28.27
2022-12-24T14:35:19.294Z,27.13
2022-12-24T14:37:50.426Z,31.38
2022-12-24T14:40:24.000Z,28.00
2022-12-24T14:43:02.329Z,29.17
2022-12-24T14:45:35.772Z,27.13
2022-12-24T14:48:13.638Z,27.63
2022-12-24T14:51:07.063Z,33.13
2022-12-24T14:53:53.768Z,30.40
2022-12-24T14:56:24.108Z,28.50
2022-12-24T14:58:52.807Z,29.90
2022-12-24T15:01:24.169Z,30.03
2022-12-24T15:04:06.433Z,30.83
2022-12-24T15:06:37.781Z,29.53
2022-12-24T15:09:06.462Z,32.87
2022-12-24T15:11:37.168Z,30.50
2022-12-24T15:14:06.902Z,30.73
2022-12-24T15:16:37.655Z,31.93
2022-12-24T15:19:09.140Z,32.63
2022-12-24T15:21:41.682Z,29.57
2022-12-24T15:24:25.466Z,31.97
2022-12-24T15:26:55.585Z,31.53
2022-12-24T15:29:27.856Z,29.03
2022-12-24T15:31:57.861Z,29.50
2022-12-24T15:34:31.525Z,30.30
2022-12-24T15:37:04.842Z,30.17
2022-12-24T15:39:33.908Z,29.90
2022-12-24T15:42:18.756Z,35.25
2022-12-24T15:44:58.217Z,30.23
2022-12-24T15:47:30.519Z,30.30
2022-12-24T15:49:58.940Z,28.27
2022-12-24T15:52:28.021Z,30.17
2022-12-24T15:54:58.290Z,29.33
2022-12-24T15:57:31.499Z,31.90
2022-12-24T16:00:01.339Z,31.10
2022-12-24T16:02:41.420Z,30.10
2022-12-24T16:05:34.732Z,29.97
2022-12-24T16:11:28.534Z,29.37
2022-12-24T16:14:05.337Z,29.37
2022-12-24T16:16:37.289Z,28.20
2022-12-24T16:19:08.499Z,29.73
2022-12-24T16:21:39.858Z,31.57
2022-12-24T16:24:16.303Z,30.43
2022-12-24T16:26:44.802Z,30.80
2022-12-24T16:29:15.331Z,31.47
2022-12-24T16:31:47.340Z,34.73
2022-12-24T16:34:17.266Z,33.40
2022-12-24T16:36:47.162Z,31.40
2022-12-24T16:39:24.755Z,30.63
2022-12-24T16:42:11.154Z,33.53
2022-12-24T16:44:42.931Z,36.45
2022-12-24T16:47:14.498Z,32.90
2022-12-24T16:49:42.940Z,31.07
2022-12-24T16:52:18.182Z,31.17
2022-12-24T16:54:46.420Z,31.33
2022-12-24T16:57:14.723Z,31.13
2022-12-24T16:59:44.552Z,30.47
2022-12-24T17:02:15.362Z,31.47
2022-12-24T17:04:44.393Z,30.53
2022-12-24T17:07:12.935Z,30.00
2022-12-24T17:09:41.250Z,30.33
2022-12-24T17:12:09.817Z,30.90
2022-12-24T17:14:39.658Z,30.53
2022-12-24T17:17:12.205Z,31.27
2022-12-24T17:19:40.451Z,30.23
2022-12-24T17:22:08.786Z,30.27
2022-12-24T17:24:37.123Z,31.57
2022-12-24T17:27:05.517Z,29.73
2022-12-24T17:29:33.986Z,30.30
2022-12-24T17:32:02.540Z,30.03
2022-12-24T17:34:32.268Z,28.13
2022-12-24T17:37:00.573Z,28.37
2022-12-24T17:39:28.873Z,28.83
2022-12-24T17:41:57.925Z,33.30
2022-12-24T17:44:26.305Z,28.70
2022-12-24T17:46:54.705Z,28.70
2022-12-24T17:49:23.079Z,27.90
2022-12-24T17:51:52.790Z,29.03
2022-12-24T17:54:21.065Z,31.50
2022-12-24T17:56:49.339Z,27.97
2022-12-24T17:59:18.220Z,30.43
2022-12-24T18:01:46.642Z,28.77
2022-12-24T18:04:15.056Z,29.43
2022-12-24T18:06:49.018Z,33.10
2022-12-24T18:09:19.185Z,30.33
2022-12-24T18:11:47.663Z,28.27
2022-12-24T18:14:16.082Z,29.97
2022-12-24T18:16:45.086Z,30.80
2022-12-24T18:19:13.890Z,30.83
2022-12-24T18:21:42.271Z,31.00
2022-12-24T18:24:11.867Z,28.33
2022-12-24T18:26:41.799Z,28.60
2022-12-24T18:29:11.120Z,30.53
2022-12-24T18:31:39.972Z,27.90
2022-12-24T18:34:10.492Z,28.43
2022-12-24T18:36:38.826Z,29.17
2022-12-24T18:39:07.328Z,31.13
2022-12-24T18:41:36.254Z,30.50
2022-12-24T18:44:06.115Z,31.43
2022-12-24T18:46:35.129Z,27.73
2022-12-24T18:49:03.854Z,26.90
2022-12-24T18:51:34.399Z,28.73
2022-12-24T18:54:03.647Z,29.17
2022-12-24T18:56:32.580Z,27.97
2022-12-24T18:59:03.152Z,28.23
2022-12-24T19:01:35.059Z,31.67
2022-12-24T19:04:04.208Z,28.10
2022-12-24T19:06:32.503Z,31.07
2022-12-24T19:09:01.739Z,28.00
2022-12-24T19:11:32.274Z,28.67
2022-12-24T19:14:01.377Z,27.10
2022-12-24T19:16:31.803Z,28.53
2022-12-24T19:19:01.988Z,30.30
2022-12-24T19:21:30.273Z,31.10
2022-12-24T19:23:58.606Z,29.40
2022-12-24T19:26:27.236Z,31.73
2022-12-24T19:28:55.811Z,30.43
2022-12-24T19:31:25.823Z,32.07
2022-12-24T19:33:56.442Z,31.33
2022-12-24T19:36:28.945Z,30.83
2022-12-24T19:38:57.821Z,30.67
2022-12-24T19:41:28.410Z,29.70
2022-12-24T19:43:58.626Z,29.33
2022-12-24T19:46:29.250Z,29.40
2022-12-24T19:48:59.920Z,28.77
2022-12-24T19:51:30.697Z,29.57
2022-12-24T19:54:00.399Z,28.63
2022-12-24T19:56:30.747Z,28.30
2022-12-24T19:59:00.169Z,27.17
2022-12-24T20:01:30.857Z,28.73
2022-12-24T20:03:59.582Z,29.80
2022-12-24T20:06:31.482Z,28.73
2022-12-24T20:09:01.556Z,29.13
2022-12-24T20:11:30.375Z,27.90
2022-12-24T20:13:59.807Z,28.47
2022-12-24T20:16:29.527Z,26.40
2022-12-24T20:18:59.553Z,28.33
2022-12-24T20:21:28.504Z,26.40
2022-12-24T20:23:58.256Z,28.00
2022-12-24T20:26:28.438Z,28.53
2022-12-24T20:28:56.784Z,29.33
2022-12-24T20:31:27.160Z,26.63
2022-12-24T20:33:55.804Z,26.50
2022-12-24T20:36:25.969Z,25.80
2022-12-24T20:38:54.648Z,25.77
2022-12-24T20:41:26.145Z,26.77
2022-12-24T20:43:54.422Z,27.80
2022-12-24T20:46:24.463Z,27.33
2022-12-24T20:48:53.146Z,25.40
2022-12-24T20:51:24.579Z,28.27
2022-12-24T20:53:54.643Z,26.77
2022-12-24T20:56:24.965Z,28.20
2022-12-24T20:58:53.626Z,25.37
2022-12-24T21:01:24.618Z,24.63
2022-12-24T21:03:53.792Z,25.17
2022-12-24T21:06:24.534Z,26.40
2022-12-24T21:08:54.050Z,26.53
2022-12-24T21:11:41.661Z,27.17
2022-12-24T21:14:10.092Z,26.63
2022-12-24T21:16:39.836Z,27.40
2022-12-24T21:19:09.437Z,26.57
2022-12-24T21:21:38.199Z,28.17
2022-12-24T21:24:07.274Z,29.13
2022-12-24T21:26:38.425Z,28.10
2022-12-24T21:29:08.279Z,28.83
2022-12-24T21:31:37.190Z,31.02
2022-12-24T21:34:05.684Z,25.97
2022-12-24T21:36:33.982Z,25.43
2022-12-24T21:39:02.274Z,26.20
2022-12-24T21:41:30.616Z,26.63
2022-12-24T21:44:02.108Z,29.77
2022-12-24T21:46:30.535Z,25.63
2022-12-24T21:49:16.493Z,24.23
2022-12-24T21:51:46.936Z,23.63
2022-12-24T21:54:31.632Z,22.63
2022-12-24T21:57:19.593Z,26.58
2022-12-24T21:59:51.804Z,24.00
2022-12-24T22:02:22.807Z,22.83
2022-12-24T22:04:51.268Z,23.03
2022-12-24T22:07:44.903Z,21.13
2022-12-24T22:10:32.394Z,24.20
2022-12-24T22:13:06.401Z,20.73
2022-12-24T22:15:36.903Z,21.97
2022-12-24T22:18:05.483Z,19.97
2022-12-24T22:20:33.755Z,22.13
2022-12-24T22:23:02.056Z,21.77
2022-12-24T22:25:30.515Z,21.70
2022-12-24T22:27:58.994Z,21.40
2022-12-24T22:30:27.524Z,21.00
2022-12-24T22:32:57.349Z,20.70
2022-12-24T22:35:25.826Z,24.50
2022-12-24T22:37:59.619Z,22.53
2022-12-24T22:40:28.604Z,22.23
2022-12-24T22:42:56.869Z,21.17
2022-12-24T22:45:25.123Z,21.50
2022-12-24T22:47:53.399Z,22.53
2022-12-24T22:50:23.237Z,22.07
2022-12-24T22:52:52.676Z,21.30
2022-12-24T22:55:21.293Z,21.23
2022-12-24T22:57:49.815Z,20.80
2022-12-24T23:00:39.418Z,21.07
2022-12-24T23:03:08.603Z,20.83
2022-12-24T23:05:38.608Z,21.80
2022-12-24T23:08:08.491Z,20.73
2022-12-24T23:10:37.337Z,20.40
2022-12-24T23:13:23.346Z,21.23
2022-12-24T23:15:52.025Z,21.30
2022-12-24T23:18:20.416Z,21.20
2022-12-24T23:20:50.130Z,21.20
2022-12-24T23:23:18.449Z,20.87
2022-12-24T23:25:46.715Z,20.03
2022-12-24T23:28:15.212Z,20.90
2022-12-24T23:30:46.333Z,21.17
2022-12-24T23:33:14.644Z,21.13
2022-12-24T23:35:42.911Z,21.73
2022-12-24T23:38:12.565Z,21.10
2022-12-24T23:40:42.990Z,21.30
2022-12-24T23:43:11.276Z,22.37
2022-12-24T23:45:39.531Z,22.33
2022-12-24T23:48:07.792Z,21.77
2022-12-24T23:50:36.067Z,21.60
2022-12-24T23:53:04.728Z,21.50
2022-12-24T23:55:34.449Z,19.57
2022-12-24T23:58:02.745Z,21.63
